createdAt,value
2017-09-26T00:00:48.915Z,11.41
2017-09-26T00:03:18.388Z,11.44
2017-09-26T00:05:51.547Z,11.66
2017-09-26T00:08:20.710Z,11.80
2017-09-26T00:10:50.444Z,11.85
2017-09-26T00:13:20.270Z,11.86
2017-09-26T00:15:50.292Z,11.63
2017-09-26T00:18:19.818Z,11.41
2017-09-26T00:20:50.580Z,11.47
2017-09-26T00:23:20.332Z,11.28
2017-09-26T00:25:50.230Z,11.33
2017-09-26T00:28:20.172Z,11.45
2017-09-26T00:30:50.102Z,11.46
2017-09-26T00:33:19.495Z,11.22
2017-09-26T00:35:50.475Z,11.25
2017-09-26T00:38:19.778Z,11.30
2017-09-26T00:40:50.818Z,11.48
2017-09-26T00:43:20.626Z,11.22
2017-09-26T00:45:51.618Z,11.40
2017-09-26T00:48:20.821Z,11.62
2017-09-26T00:50:51.264Z,11.70
2017-09-26T00:53:20.570Z,11.22
2017-09-26T00:55:50.861Z,11.29
2017-09-26T00:58:20.765Z,11.43
2017-09-26T01:00:53.980Z,11.51
2017-09-26T01:03:24.073Z,11.49
2017-09-26T01:05:53.826Z,11.53
2017-09-26T01:08:23.368Z,11.55
2017-09-26T01:10:53.262Z,11.51
2017-09-26T01:13:22.736Z,11.48
2017-09-26T01:15:52.433Z,11.45
2017-09-26T01:18:21.863Z,11.39
2017-09-26T01:20:51.949Z,11.37
2017-09-26T01:23:21.706Z,11.37
2017-09-26T01:25:52.406Z,11.34
2017-09-26T01:28:22.011Z,11.32
2017-09-26T01:30:52.418Z,11.33
2017-09-26T01:33:21.827Z,11.37
2017-09-26T01:35:53.429Z,11.26
2017-09-26T01:38:23.139Z,11.28
2017-09-26T01:41:03.659Z,11.22
2017-09-26T01:43:32.895Z,11.17
2017-09-26T01:46:02.610Z,11.17
2017-09-26T01:48:32.792Z,11.22
2017-09-26T01:51:02.466Z,11.23
2017-09-26T01:53:32.142Z,11.25
2017-09-26T01:56:02.284Z,11.26
2017-09-26T01:58:31.795Z,11.29
2017-09-26T02:01:00.995Z,10.65
2017-09-26T02:03:31.137Z,10.82
2017-09-26T02:06:00.637Z,11.10
2017-09-26T02:08:30.152Z,10.78
2017-09-26T02:10:59.742Z,10.84
2017-09-26T02:13:29.451Z,10.60
2017-09-26T02:15:58.886Z,10.52
2017-09-26T02:18:28.764Z,10.85
2017-09-26T02:20:58.415Z,11.12
2017-09-26T02:23:27.684Z,11.09
2017-09-26T02:25:57.130Z,10.99
2017-09-26T02:28:26.429Z,11.20
2017-09-26T02:30:55.727Z,10.94
2017-09-26T02:33:25.285Z,10.95
2017-09-26T02:35:54.822Z,11.19
2017-09-26T02:38:24.036Z,11.02
2017-09-26T02:40:54.930Z,11.19
2017-09-26T02:43:24.095Z,11.13
2017-09-26T02:45:54.612Z,11.08
2017-09-26T02:48:24.130Z,11.30
2017-09-26T02:50:55.012Z,11.44
2017-09-26T02:53:24.293Z,11.52
2017-09-26T02:55:55.637Z,11.64
2017-09-26T02:58:25.466Z,11.43
2017-09-26T03:00:55.871Z,11.11
2017-09-26T03:03:25.403Z,11.18
2017-09-26T03:05:57.335Z,11.21
2017-09-26T03:08:26.962Z,11.41
2017-09-26T03:10:56.417Z,11.56
2017-09-26T03:13:25.615Z,11.58
2017-09-26T03:16:01.038Z,11.50
2017-09-26T03:18:30.217Z,11.57
2017-09-26T03:20:59.779Z,11.51
2017-09-26T03:23:29.004Z,11.24
2017-09-26T03:25:58.310Z,11.19
2017-09-26T03:28:27.791Z,11.25
2017-09-26T03:30:57.572Z,11.31
2017-09-26T03:33:26.754Z,11.26
2017-09-26T03:35:58.735Z,11.28
2017-09-26T03:38:28.000Z,11.34
2017-09-26T03:40:59.149Z,11.16
2017-09-26T03:43:28.478Z,10.95
2017-09-26T03:45:57.955Z,11.07
2017-09-26T03:48:27.168Z,10.88
2017-09-26T03:50:58.556Z,10.97
2017-09-26T03:53:28.231Z,11.31
2017-09-26T03:55:58.447Z,11.39
2017-09-26T03:58:28.027Z,11.33
2017-09-26T04:00:59.091Z,11.21
2017-09-26T04:03:28.391Z,11.12
2017-09-26T04:05:59.265Z,11.06
2017-09-26T04:08:28.871Z,11.27
2017-09-26T04:10:59.295Z,11.26
2017-09-26T04:13:29.298Z,11.11
2017-09-26T04:16:00.014Z,10.68
2017-09-26T04:18:29.183Z,10.89
2017-09-26T04:21:01.655Z,11.17
2017-09-26T04:23:31.160Z,11.31
2017-09-26T04:26:00.454Z,11.11
2017-09-26T04:28:30.553Z,10.98
2017-09-26T04:31:00.230Z,11.04
2017-09-26T04:33:29.455Z,11.22
2017-09-26T04:36:01.147Z,11.27
2017-09-26T04:38:30.387Z,11.10
2017-09-26T04:41:01.148Z,11.34
2017-09-26T04:43:31.510Z,10.69
2017-09-26T04:46:01.521Z,11.02
2017-09-26T04:48:31.383Z,11.19
2017-09-26T04:51:01.917Z,11.26
2017-09-26T04:53:31.117Z,11.34
2017-09-26T04:56:01.379Z,11.41
2017-09-26T04:58:31.441Z,11.31
2017-09-26T05:01:01.799Z,11.40
2017-09-26T05:03:31.014Z,11.43
2017-09-26T05:06:01.820Z,11.46
2017-09-26T05:08:31.169Z,11.47
2017-09-26T05:11:02.298Z,11.52
2017-09-26T05:13:31.860Z,11.47
2017-09-26T05:16:02.645Z,11.47
2017-09-26T05:18:32.011Z,11.35
2017-09-26T05:21:01.615Z,11.01
2017-09-26T05:23:30.959Z,10.98
2017-09-26T05:26:00.431Z,11.26
2017-09-26T05:28:29.938Z,11.35
2017-09-26T05:30:59.151Z,11.39
2017-09-26T05:33:28.366Z,11.28
2017-09-26T05:35:58.088Z,11.31
2017-09-26T05:38:27.331Z,11.43
2017-09-26T05:40:56.505Z,11.53
2017-09-26T05:43:26.103Z,11.62
2017-09-26T05:45:55.335Z,11.59
2017-09-26T05:48:24.631Z,11.58
2017-09-26T05:50:56.353Z,11.49
2017-09-26T05:53:25.670Z,11.47
2017-09-26T05:55:54.857Z,11.62
2017-09-26T05:58:25.684Z,11.62
2017-09-26T06:00:54.909Z,11.67
2017-09-26T06:03:27.378Z,11.49
2017-09-26T06:05:57.051Z,11.40
2017-09-26T06:08:26.367Z,11.20
2017-09-26T06:10:55.949Z,11.49
2017-09-26T06:13:27.283Z,11.60
2017-09-26T06:15:56.618Z,11.11
2017-09-26T06:18:25.919Z,11.52
2017-09-26T06:20:56.946Z,11.20
2017-09-26T06:23:26.852Z,11.58
2017-09-26T06:25:56.070Z,11.74
2017-09-26T06:28:26.423Z,11.71
2017-09-26T06:30:55.858Z,11.69
2017-09-26T06:33:25.107Z,11.87
2017-09-26T06:35:55.679Z,11.86
2017-09-26T06:38:25.128Z,11.91
2017-09-26T06:40:54.400Z,12.05
2017-09-26T06:43:23.867Z,11.97
2017-09-26T06:45:53.687Z,11.91
2017-09-26T06:48:22.903Z,12.05
2017-09-26T06:50:52.488Z,11.87
2017-09-26T06:53:21.807Z,12.03
2017-09-26T06:55:51.447Z,11.91
2017-09-26T06:58:21.055Z,12.05
2017-09-26T07:00:50.323Z,12.01
2017-09-26T07:03:20.850Z,12.15
2017-09-26T07:05:50.432Z,12.23
2017-09-26T07:08:19.740Z,12.09
2017-09-26T07:10:48.917Z,12.21
2017-09-26T07:13:18.800Z,12.13
2017-09-26T07:15:48.276Z,11.83
2017-09-26T07:18:17.814Z,12.10
2017-09-26T07:20:47.466Z,12.25
2017-09-26T07:23:40.192Z,12.19
2017-09-26T07:26:11.282Z,12.26
2017-09-26T07:28:40.838Z,11.75
2017-09-26T07:31:10.316Z,11.56
2017-09-26T07:33:40.014Z,11.70
2017-09-26T07:36:09.365Z,11.92
2017-09-26T07:38:38.844Z,12.18
2017-09-26T07:41:08.335Z,11.79
2017-09-26T07:43:37.989Z,12.01
2017-09-26T07:46:07.785Z,12.32
2017-09-26T07:48:38.438Z,12.09
2017-09-26T07:51:08.498Z,12.12
2017-09-26T07:53:38.226Z,11.98
2017-09-26T07:56:07.823Z,12.38
2017-09-26T07:58:37.455Z,12.21
2017-09-26T08:01:08.012Z,11.94
2017-09-26T08:03:38.814Z,12.05
2017-09-26T08:06:10.030Z,12.04
2017-09-26T08:08:41.036Z,12.28
2017-09-26T08:11:10.783Z,12.61
2017-09-26T08:13:40.901Z,12.63
2017-09-26T08:16:10.200Z,13.11
2017-09-26T08:18:39.847Z,13.08
2017-09-26T08:21:09.032Z,13.23
2017-09-26T08:23:38.819Z,13.07
2017-09-26T08:26:08.508Z,12.38
2017-09-26T08:28:38.724Z,13.16
2017-09-26T08:31:08.651Z,12.57
2017-09-26T08:33:38.862Z,12.46
2017-09-26T08:36:08.023Z,12.41
2017-09-26T08:38:37.513Z,12.74
2017-09-26T08:41:07.004Z,12.68
2017-09-26T08:43:37.119Z,12.43
2017-09-26T08:46:06.335Z,12.80
2017-09-26T08:48:36.499Z,13.11
2017-09-26T08:51:06.267Z,13.87
2017-09-26T08:53:37.818Z,14.36
2017-09-26T08:56:08.030Z,14.77
2017-09-26T08:58:37.757Z,15.29
2017-09-26T09:01:07.247Z,14.57
2017-09-26T09:03:38.237Z,14.67
2017-09-26T09:06:07.492Z,15.20
2017-09-26T09:08:38.227Z,15.56
2017-09-26T09:11:08.175Z,15.30
2017-09-26T09:13:39.034Z,15.59
2017-09-26T09:16:08.710Z,14.86
2017-09-26T09:18:40.164Z,14.78
2017-09-26T09:21:10.253Z,14.76
2017-09-26T09:23:40.118Z,15.36
2017-09-26T09:26:09.795Z,15.32
2017-09-26T09:28:39.151Z,15.59
2017-09-26T09:31:08.588Z,15.40
2017-09-26T09:33:38.466Z,15.39
2017-09-26T09:36:07.763Z,15.41
2017-09-26T09:38:37.404Z,15.35
2017-09-26T09:41:07.850Z,14.29
2017-09-26T09:43:37.212Z,13.92
2017-09-26T09:46:06.442Z,14.00
2017-09-26T09:48:36.014Z,14.05
2017-09-26T09:51:06.426Z,14.17
2017-09-26T09:53:35.771Z,14.15
2017-09-26T09:56:05.294Z,14.37
2017-09-26T09:58:34.571Z,14.41
2017-09-26T10:01:03.828Z,14.28
2017-09-26T10:03:35.458Z,14.21
2017-09-26T10:06:06.158Z,14.62
2017-09-26T10:08:36.278Z,15.36
2017-09-26T10:11:06.019Z,14.94
2017-09-26T10:13:37.243Z,15.27
2017-09-26T10:16:06.711Z,15.36
2017-09-26T10:18:38.013Z,15.77
2017-09-26T10:21:07.529Z,15.98
2017-09-26T10:23:36.769Z,15.92
2017-09-26T10:26:06.426Z,16.29
2017-09-26T10:28:37.835Z,16.37
2017-09-26T10:31:07.239Z,16.52
2017-09-26T10:33:38.744Z,15.59
2017-09-26T10:36:08.087Z,15.82
2017-09-26T10:38:37.274Z,16.24
2017-09-26T10:41:07.483Z,16.29
2017-09-26T10:43:36.662Z,16.56
2017-09-26T10:46:05.907Z,16.53
2017-09-26T10:48:35.373Z,15.43
2017-09-26T10:51:05.103Z,15.66
2017-09-26T10:53:34.442Z,16.20
2017-09-26T10:56:03.911Z,15.35
2017-09-26T10:58:33.079Z,15.20
2017-09-26T11:01:02.226Z,15.64
2017-09-26T11:03:34.202Z,15.63
2017-09-26T11:06:03.387Z,15.91
2017-09-26T11:08:32.583Z,15.83
2017-09-26T11:11:02.211Z,15.85
2017-09-26T11:13:31.637Z,16.33
2017-09-26T11:16:00.873Z,16.34
2017-09-26T11:18:30.553Z,15.93
2017-09-26T11:21:00.080Z,16.20
2017-09-26T11:23:29.483Z,16.30
2017-09-26T11:25:59.068Z,16.45
2017-09-26T11:28:28.413Z,16.75
2017-09-26T11:30:57.621Z,17.38
2017-09-26T11:33:27.072Z,17.12
2017-09-26T11:35:56.818Z,16.93
2017-09-26T11:38:26.491Z,16.84
2017-09-26T11:40:56.635Z,16.53
2017-09-26T11:43:25.951Z,16.85
2017-09-26T11:45:55.583Z,17.06
2017-09-26T11:48:27.722Z,16.70
2017-09-26T11:50:57.166Z,16.97
2017-09-26T11:53:27.992Z,17.18
2017-09-26T11:55:57.718Z,17.36
2017-09-26T11:58:27.383Z,17.00
2017-09-26T12:00:56.971Z,17.20
2017-09-26T12:03:26.481Z,16.94
2017-09-26T12:05:55.937Z,17.30
2017-09-26T12:08:25.296Z,17.05
2017-09-26T12:10:55.124Z,17.11
2017-09-26T12:13:28.409Z,17.08
2017-09-26T12:15:58.291Z,16.79
2017-09-26T12:18:28.483Z,16.74
2017-09-26T12:20:58.496Z,16.91
2017-09-26T12:23:28.630Z,16.85
2017-09-26T12:26:02.211Z,16.94
2017-09-26T12:28:31.615Z,16.29
2017-09-26T12:31:04.694Z,16.39
2017-09-26T12:33:34.611Z,16.66
2017-09-26T12:36:04.386Z,16.79
2017-09-26T12:38:34.139Z,16.88
2017-09-26T12:41:05.036Z,16.95
2017-09-26T12:43:34.651Z,17.16
2017-09-26T12:46:06.082Z,17.80
2017-09-26T12:48:35.760Z,17.94
2017-09-26T12:51:07.571Z,18.16
2017-09-26T12:53:37.320Z,17.98
2017-09-26T12:56:06.634Z,17.88
2017-09-26T12:58:36.255Z,17.69
2017-09-26T13:01:06.617Z,17.48
2017-09-26T13:03:36.947Z,17.58
2017-09-26T13:06:06.639Z,17.64
2017-09-26T13:08:36.664Z,17.63
2017-09-26T13:11:06.224Z,17.74
2017-09-26T13:13:36.161Z,17.03
2017-09-26T13:16:05.949Z,17.47
2017-09-26T13:18:35.179Z,17.34
2017-09-26T13:21:05.360Z,17.57
2017-09-26T13:23:35.904Z,17.45
2017-09-26T13:26:05.385Z,16.82
2017-09-26T13:28:34.754Z,17.69
2017-09-26T13:31:04.998Z,17.20
2017-09-26T13:33:34.273Z,16.85
2017-09-26T13:36:04.148Z,16.59
2017-09-26T13:38:34.279Z,16.98
2017-09-26T13:41:04.211Z,17.04
2017-09-26T13:43:33.677Z,16.99
2017-09-26T13:46:03.561Z,16.94
2017-09-26T13:48:32.935Z,17.64
2017-09-26T13:51:02.590Z,18.04
2017-09-26T13:53:32.226Z,16.87
2017-09-26T13:56:01.707Z,17.80
2017-09-26T13:58:31.243Z,17.04
2017-09-26T14:01:01.359Z,18.03
2017-09-26T14:03:30.668Z,17.91
2017-09-26T14:05:59.926Z,17.80
2017-09-26T14:08:29.464Z,17.67
2017-09-26T14:10:58.707Z,17.46
2017-09-26T14:13:28.178Z,17.56
2017-09-26T14:15:58.047Z,17.46
2017-09-26T14:18:27.442Z,17.33
2017-09-26T14:20:56.843Z,17.44
2017-09-26T14:23:26.510Z,17.60
2017-09-26T14:25:55.743Z,17.85
2017-09-26T14:28:25.053Z,17.92
2017-09-26T14:30:54.597Z,17.70
2017-09-26T14:33:23.815Z,17.50
2017-09-26T14:35:53.210Z,17.32
2017-09-26T14:38:22.983Z,17.45
2017-09-26T14:40:52.322Z,17.45
2017-09-26T14:43:21.584Z,17.35
2017-09-26T14:45:51.655Z,17.31
2017-09-26T14:48:20.822Z,17.14
2017-09-26T14:50:50.068Z,16.84
2017-09-26T14:53:20.147Z,17.08
2017-09-26T14:55:49.479Z,16.99
2017-09-26T14:58:18.907Z,16.96
2017-09-26T15:00:48.524Z,17.19
2017-09-26T15:03:18.024Z,17.00
2017-09-26T15:05:47.250Z,16.94
2017-09-26T15:08:17.215Z,16.98
2017-09-26T15:10:46.492Z,16.81
2017-09-26T15:13:16.121Z,16.67
2017-09-26T15:15:45.896Z,16.75
2017-09-26T15:18:15.510Z,16.74
2017-09-26T15:20:44.778Z,16.71
2017-09-26T15:23:14.783Z,16.68
2017-09-26T15:25:44.147Z,16.81
2017-09-26T15:28:13.934Z,17.11
2017-09-26T15:30:45.540Z,16.83
2017-09-26T15:33:15.405Z,16.97
2017-09-26T15:35:45.899Z,16.83
2017-09-26T15:38:16.369Z,17.00
2017-09-26T15:40:45.982Z,17.01
2017-09-26T15:43:16.336Z,16.95
2017-09-26T15:45:46.186Z,16.85
2017-09-26T15:48:16.949Z,17.10
2017-09-26T15:50:46.581Z,17.16
2017-09-26T15:53:27.809Z,17.05
2017-09-26T15:55:58.004Z,17.14
2017-09-26T15:58:28.211Z,17.37
2017-09-26T16:01:43.918Z,17.16
2017-09-26T16:04:14.140Z,16.76
2017-09-26T16:06:44.207Z,16.68
2017-09-26T16:09:15.940Z,17.10
2017-09-26T16:11:48.448Z,17.22
2017-09-26T16:14:17.856Z,17.30
2017-09-26T16:16:47.731Z,17.19
2017-09-26T16:19:19.171Z,17.18
2017-09-26T16:21:48.540Z,17.30
2017-09-26T16:24:18.218Z,17.30
2017-09-26T16:26:48.135Z,17.29
2017-09-26T16:29:19.304Z,17.29
2017-09-26T16:31:48.610Z,17.12
2017-09-26T16:34:18.600Z,17.21
2017-09-26T16:36:52.176Z,17.09
2017-09-26T16:39:21.683Z,17.08
2017-09-26T16:41:51.303Z,17.08
2017-09-26T16:44:20.854Z,16.75
2017-09-26T16:46:50.623Z,16.68
2017-09-26T16:49:22.202Z,16.66
2017-09-26T16:51:51.596Z,16.75
2017-09-26T16:54:21.568Z,16.78
2017-09-26T16:56:51.721Z,16.77
2017-09-26T16:59:21.698Z,16.74
2017-09-26T17:01:51.116Z,16.77
2017-09-26T17:04:21.379Z,16.69
2017-09-26T17:06:50.987Z,16.64
2017-09-26T17:09:20.603Z,16.56
2017-09-26T17:11:50.351Z,16.30
2017-09-26T17:14:19.683Z,16.27
2017-09-26T17:16:48.853Z,16.18
2017-09-26T17:19:18.639Z,16.10
2017-09-26T17:21:47.851Z,15.97
2017-09-26T17:24:17.334Z,15.84
2017-09-26T17:26:46.936Z,15.78
2017-09-26T17:29:16.588Z,15.69
2017-09-26T17:31:45.947Z,15.70
2017-09-26T17:34:15.646Z,15.66
2017-09-26T17:36:45.071Z,15.33
2017-09-26T17:39:14.544Z,15.35
2017-09-26T17:41:44.115Z,15.29
2017-09-26T17:44:13.716Z,15.21
2017-09-26T17:46:43.063Z,15.16
2017-09-26T17:49:12.833Z,15.06
2017-09-26T17:51:42.539Z,15.00
2017-09-26T17:54:12.295Z,14.99
2017-09-26T17:56:42.903Z,15.00
2017-09-26T17:59:20.701Z,14.92
2017-09-26T18:01:51.542Z,14.87
2017-09-26T18:04:24.699Z,14.77
2017-09-26T18:06:56.113Z,14.79
2017-09-26T18:09:26.273Z,14.74
2017-09-26T18:11:56.237Z,14.74
2017-09-26T18:14:27.176Z,14.67
2017-09-26T18:16:59.278Z,14.59
2017-09-26T18:19:30.222Z,14.47
2017-09-26T18:22:00.776Z,14.44
2017-09-26T18:24:31.690Z,14.33
2017-09-26T18:27:03.079Z,14.32
2017-09-26T18:29:34.494Z,14.21
2017-09-26T18:32:05.249Z,14.12
2017-09-26T18:34:40.703Z,14.05
2017-09-26T18:37:39.590Z,14.03
2017-09-26T18:40:29.823Z,13.99
2017-09-26T18:43:00.294Z,13.39
2017-09-26T18:45:32.979Z,13.66
2017-09-26T18:48:42.383Z,13.82
2017-09-26T18:52:25.864Z,13.83
2017-09-26T18:54:55.584Z,13.85
2017-09-26T18:57:25.751Z,13.79
2017-09-26T19:06:41.434Z,13.74
2017-09-26T19:09:10.727Z,13.51
2017-09-26T19:11:40.367Z,12.76
2017-09-26T19:14:09.964Z,13.01
2017-09-26T19:22:06.989Z,13.15
2017-09-26T19:24:37.067Z,13.12
2017-09-26T19:27:06.451Z,13.10
2017-09-26T19:42:16.515Z,13.07
2017-09-26T19:44:45.708Z,12.93
2017-09-26T19:47:15.073Z,12.66
2017-09-26T19:49:44.671Z,12.06
2017-09-26T19:52:14.460Z,12.46
2017-09-26T20:08:47.136Z,12.25
2017-09-26T20:14:24.320Z,12.70
2017-09-26T20:16:54.018Z,12.21
2017-09-26T20:22:16.190Z,12.53
2017-09-26T20:24:45.937Z,12.75
2017-09-26T20:27:15.350Z,12.76
2017-09-26T20:29:44.976Z,12.75
2017-09-26T20:32:14.667Z,12.71
2017-09-26T20:34:43.881Z,12.76
2017-09-26T20:37:13.631Z,12.77
2017-09-26T20:39:43.012Z,12.73
2017-09-26T20:42:12.361Z,12.70
2017-09-26T20:44:43.566Z,12.68
2017-09-26T20:47:12.885Z,12.66
2017-09-26T20:49:42.067Z,12.64
2017-09-26T20:52:11.872Z,12.59
2017-09-26T20:54:41.222Z,12.55
2017-09-26T20:57:11.372Z,12.57
2017-09-26T20:59:41.323Z,12.51
2017-09-26T21:02:12.155Z,12.49
2017-09-26T21:04:41.648Z,12.45
2017-09-26T21:07:11.969Z,12.45
2017-09-26T21:09:41.443Z,12.39
2017-09-26T21:12:11.071Z,12.34
2017-09-26T21:14:40.861Z,12.32
2017-09-26T21:17:11.312Z,12.24
2017-09-26T21:19:41.659Z,12.18
2017-09-26T21:22:14.055Z,12.14
2017-09-26T21:24:44.092Z,12.07
2017-09-26T21:27:15.377Z,12.06
2017-09-26T21:29:45.007Z,12.07
2017-09-26T21:32:14.270Z,12.00
2017-09-26T21:34:44.144Z,11.98
2017-09-26T21:37:13.851Z,11.90
2017-09-26T21:39:44.388Z,11.88
2017-09-26T21:42:14.163Z,11.89
2017-09-26T21:44:43.387Z,11.85
2017-09-26T21:47:12.868Z,11.85
2017-09-26T21:49:42.472Z,11.81
2017-09-26T21:52:11.802Z,11.77
2017-09-26T21:54:41.291Z,11.75
2017-09-26T21:57:11.362Z,11.72
2017-09-26T21:59:40.915Z,11.73
2017-09-26T22:02:10.095Z,11.72
2017-09-26T22:04:39.803Z,11.67
2017-09-26T22:07:09.319Z,11.69
2017-09-26T22:09:38.590Z,11.67
2017-09-26T22:12:08.167Z,11.65
2017-09-26T22:14:37.590Z,11.62
2017-09-26T22:17:06.790Z,11.59
2017-09-26T22:19:36.642Z,11.60
2017-09-26T22:22:05.906Z,11.49
2017-09-26T22:24:35.140Z,11.49
2017-09-26T22:27:05.066Z,11.47
2017-09-26T22:29:34.646Z,11.40
2017-09-26T22:32:04.115Z,11.38
2017-09-26T22:34:33.651Z,11.32
2017-09-26T22:37:02.911Z,11.32
2017-09-26T22:39:32.335Z,11.29
2017-09-26T22:42:01.957Z,11.30
2017-09-26T22:44:31.210Z,11.32
2017-09-26T22:47:00.852Z,11.28
2017-09-26T22:49:30.314Z,11.20
2017-09-26T22:51:59.872Z,11.21
2017-09-26T22:54:29.206Z,11.22
2017-09-26T22:56:58.935Z,10.74
2017-09-26T22:59:28.103Z,10.49
2017-09-26T23:01:57.390Z,10.24
2017-09-26T23:04:27.497Z,10.53
2017-09-26T23:06:56.819Z,10.68
2017-09-26T23:09:25.979Z,10.79
2017-09-26T23:11:56.267Z,10.81
2017-09-26T23:14:25.751Z,10.83
2017-09-26T23:16:55.479Z,10.88
2017-09-26T23:19:25.538Z,10.89
2017-09-26T23:21:58.550Z,10.90
2017-09-26T23:24:27.935Z,10.85
2017-09-26T23:26:58.153Z,10.85
2017-09-26T23:29:27.578Z,10.83
2017-09-26T23:31:57.038Z,10.83
2017-09-26T23:34:26.586Z,10.80
2017-09-26T23:36:56.168Z,10.49
2017-09-26T23:39:25.556Z,10.61
2017-09-26T23:41:55.085Z,10.65
2017-09-26T23:44:24.263Z,10.63
2017-09-26T23:46:53.538Z,10.65
2017-09-26T23:49:22.721Z,10.57
2017-09-26T23:51:52.259Z,10.53
2017-09-26T23:54:21.507Z,10.59
2017-09-26T23:56:51.087Z,10.46
2017-09-26T23:59:20.983Z,10.21
